Aviation Digital Data Service (ADDS)

Output produced by METARs form (1241 UTC 22 February 2018)
found at http://www.aviationweather.gov/adds/metars/
 
LYBE 221230Z 11015KT 9999 FEW020 SCT033 04/01 Q1011 R12/2///95 NOSIG
TAF LYBE 221100Z 2212/2312 10012KT 9999 BKN033 TX08/2312Z TN02/2305Z
       
LYNI 221230Z 05013KT 9999 FEW017 BKN043 06/M01 Q1011 NOSIG
TAF LYNI 221100Z 2212/2312 07017KT 9999 SCT015 BKN030 TX08/2213Z TN02/2305Z 
     TEMPO 2306/2312 07007KT
       
LYVR 221230Z 06003KT 340V150 9999 -RA BKN013 BKN033 04/02 Q1013 BECMG SCT015 BKN033
TAF LYVR 221100Z 2212/2312 13009KT 9999 BKN033 TX08/2312Z TN02/2305Z 
     TEMPO 2212/2220 13015G25KT 
     BECMG 2306/2308 13015G25KT
       
LYKV 221230Z 12010KT 090V160 9999 FEW020 BKN035 06/03 Q1010 NOSIG
TAF LYKV 221100Z 2212/2312 10010KT 9999 SCT015 BKN027 TX08/2213Z TN00/2206Z 
     TEMPO 2212/2216 14015G25KT
       
LYBT 221230Z 07013KT 040V110 9999 SCT015 BKN044 03/01 Q1012 R12/////// NOSIG
TAF LYBT 221100Z 2212/2312 09012KT 9999 SCT010 BKN035 TX06/2312Z TNM02/2306Z 
     TEMPO 2309/2312 11015G25KT
       
LYUZ 221230Z 11006KT 060V180 0100 FZFG VV001 M00/M00 Q1007 R10///////
TAF LYUZ 221100Z 2212/2312 06005KT 0300 FZFG VV001 TX02/2212Z TNM02/2306Z 
     BECMG 2213/2215 3000 BR BKN005 BKN010